sensor_id;sensor_type;location;lat;lon;timestamp;P1;durP1;ratioP1;P2;durP2;ratioP2
12155;SDS011;6141;49.092;8.516;2022-09-03T00:16:33;2.43;;;1.60;;
12155;SDS011;6141;49.092;8.516;2022-09-03T00:35:29;2.40;;;1.50;;
12155;SDS011;6141;49.092;8.516;2022-09-03T00:39:32;3.13;;;1.50;;
12155;SDS011;6141;49.092;8.516;2022-09-03T00:42:06;5.53;;;1.50;;
12155;SDS011;6141;49.092;8.516;2022-09-03T00:45:02;3.80;;;1.77;;
12155;SDS011;6141;49.092;8.516;2022-09-03T00:57:41;1.90;;;1.50;;
12155;SDS011;6141;49.092;8.516;2022-09-03T01:00:20;4.57;;;1.73;;
12155;SDS011;6141;49.092;8.516;2022-09-03T01:03:02;3.10;;;1.30;;
12155;SDS011;6141;49.092;8.516;2022-09-03T01:05:42;2.77;;;1.60;;
12155;SDS011;6141;49.092;8.516;2022-09-03T01:08:34;2.23;;;1.40;;
12155;SDS011;6141;49.092;8.516;2022-09-03T01:11:19;3.00;;;1.70;;
12155;SDS011;6141;49.092;8.516;2022-09-03T01:13:56;3.50;;;1.73;;
12155;SDS011;6141;49.092;8.516;2022-09-03T01:16:35;1.87;;;1.57;;
12155;SDS011;6141;49.092;8.516;2022-09-03T01:19:22;1.87;;;1.23;;
12155;SDS011;6141;49.092;8.516;2022-09-03T01:22:19;4.10;;;1.57;;
12155;SDS011;6141;49.092;8.516;2022-09-03T01:25:14;2.13;;;1.60;;
12155;SDS011;6141;49.092;8.516;2022-09-03T01:27:58;1.67;;;1.50;;
12155;SDS011;6141;49.092;8.516;2022-09-03T01:30:32;2.00;;;1.47;;
12155;SDS011;6141;49.092;8.516;2022-09-03T01:33:09;2.90;;;1.60;;
12155;SDS011;6141;49.092;8.516;2022-09-03T01:35:45;2.50;;;1.37;;
12155;SDS011;6141;49.092;8.516;2022-09-03T01:38:19;3.60;;;1.67;;
12155;SDS011;6141;49.092;8.516;2022-09-03T01:40:56;2.37;;;1.63;;
12155;SDS011;6141;49.092;8.516;2022-09-03T01:43:49;3.93;;;1.80;;
12155;SDS011;6141;49.092;8.516;2022-09-03T01:46:27;1.83;;;1.57;;
12155;SDS011;6141;49.092;8.516;2022-09-03T01:49:23;3.17;;;1.70;;
12155;SDS011;6141;49.092;8.516;2022-09-03T02:08:03;2.73;;;1.60;;
12155;SDS011;6141;49.092;8.516;2022-09-03T02:26:08;6.77;;;1.77;;
12155;SDS011;6141;49.092;8.516;2022-09-03T02:28:38;3.73;;;1.80;;
12155;SDS011;6141;49.092;8.516;2022-09-03T02:31:08;4.87;;;1.97;;
12155;SDS011;6141;49.092;8.516;2022-09-03T02:33:37;5.93;;;1.70;;
12155;SDS011;6141;49.092;8.516;2022-09-03T02:36:08;4.07;;;1.67;;
12155;SDS011;6141;49.092;8.516;2022-09-03T02:38:39;4.97;;;1.50;;
12155;SDS011;6141;49.092;8.516;2022-09-03T02:41:10;3.93;;;1.80;;
12155;SDS011;6141;49.092;8.516;2022-09-03T02:43:41;3.17;;;1.50;;
12155;SDS011;6141;49.092;8.516;2022-09-03T02:46:13;2.60;;;1.47;;
12155;SDS011;6141;49.092;8.516;2022-09-03T02:48:47;5.90;;;1.70;;
12155;SDS011;6141;49.092;8.516;2022-09-03T02:51:15;4.13;;;1.90;;
12155;SDS011;6141;49.092;8.516;2022-09-03T02:54:20;2.67;;;1.43;;
12155;SDS011;6141;49.092;8.516;2022-09-03T03:02:28;2.27;;;1.67;;
12155;SDS011;6141;49.092;8.516;2022-09-03T03:06:52;2.67;;;1.30;;
12155;SDS011;6141;49.092;8.516;2022-09-03T03:11:17;4.37;;;1.43;;
12155;SDS011;6141;49.092;8.516;2022-09-03T03:18:41;2.17;;;1.60;;
12155;SDS011;6141;49.092;8.516;2022-09-03T03:22:37;2.30;;;1.57;;
12155;SDS011;6141;49.092;8.516;2022-09-03T03:26:25;2.33;;;1.43;;
12155;SDS011;6141;49.092;8.516;2022-09-03T03:29:40;2.27;;;1.43;;
12155;SDS011;6141;49.092;8.516;2022-09-03T03:33:39;2.00;;;1.43;;
12155;SDS011;6141;49.092;8.516;2022-09-03T03:50:40;2.33;;;1.60;;
12155;SDS011;6141;49.092;8.516;2022-09-03T04:02:53;2.67;;;1.50;;
12155;SDS011;6141;49.092;8.516;2022-09-03T04:06:23;3.30;;;1.40;;
12155;SDS011;6141;49.092;8.516;2022-09-03T04:08:57;2.83;;;1.50;;
12155;SDS011;6141;49.092;8.516;2022-09-03T04:11:29;4.93;;;1.97;;
12155;SDS011;6141;49.092;8.516;2022-09-03T04:13:57;3.40;;;1.50;;
12155;SDS011;6141;49.092;8.516;2022-09-03T04:16:26;3.63;;;1.60;;
12155;SDS011;6141;49.092;8.516;2022-09-03T04:18:55;4.53;;;1.60;;
12155;SDS011;6141;49.092;8.516;2022-09-03T04:21:24;4.07;;;1.80;;
12155;SDS011;6141;49.092;8.516;2022-09-03T04:23:54;2.40;;;1.63;;
12155;SDS011;6141;49.092;8.516;2022-09-03T04:26:24;3.23;;;1.50;;
12155;SDS011;6141;49.092;8.516;2022-09-03T04:28:58;1.93;;;1.40;;
12155;SDS011;6141;49.092;8.516;2022-09-03T04:31:33;3.97;;;1.80;;
12155;SDS011;6141;49.092;8.516;2022-09-03T04:34:05;5.57;;;1.97;;
12155;SDS011;6141;49.092;8.516;2022-09-03T04:36:33;1.50;;;1.40;;
12155;SDS011;6141;49.092;8.516;2022-09-03T04:39:05;1.97;;;1.53;;
12155;SDS011;6141;49.092;8.516;2022-09-03T04:41:34;2.87;;;1.70;;
12155;SDS011;6141;49.092;8.516;2022-09-03T04:44:08;2.17;;;1.60;;
12155;SDS011;6141;49.092;8.516;2022-09-03T04:47:05;2.60;;;1.40;;
12155;SDS011;6141;49.092;8.516;2022-09-03T04:49:52;2.60;;;1.93;;
12155;SDS011;6141;49.092;8.516;2022-09-03T04:53:15;2.20;;;1.70;;
12155;SDS011;6141;49.092;8.516;2022-09-03T04:56:19;2.67;;;1.70;;
12155;SDS011;6141;49.092;8.516;2022-09-03T04:58:53;4.03;;;1.80;;
12155;SDS011;6141;49.092;8.516;2022-09-03T05:01:24;3.43;;;2.00;;
12155;SDS011;6141;49.092;8.516;2022-09-03T05:03:55;3.00;;;2.00;;
12155;SDS011;6141;49.092;8.516;2022-09-03T05:06:25;4.40;;;1.90;;
12155;SDS011;6141;49.092;8.516;2022-09-03T05:09:00;2.90;;;1.60;;
12155;SDS011;6141;49.092;8.516;2022-09-03T05:11:32;2.00;;;1.77;;
12155;SDS011;6141;49.092;8.516;2022-09-03T05:14:01;3.70;;;1.60;;
12155;SDS011;6141;49.092;8.516;2022-09-03T05:16:40;5.00;;;1.80;;
12155;SDS011;6141;49.092;8.516;2022-09-03T05:19:22;3.80;;;1.70;;
12155;SDS011;6141;49.092;8.516;2022-09-03T05:22:38;2.97;;;1.80;;
12155;SDS011;6141;49.092;8.516;2022-09-03T05:25:32;4.30;;;1.80;;
12155;SDS011;6141;49.092;8.516;2022-09-03T05:28:19;3.17;;;1.83;;
12155;SDS011;6141;49.092;8.516;2022-09-03T05:31:04;3.83;;;1.60;;
12155;SDS011;6141;49.092;8.516;2022-09-03T05:33:37;2.97;;;1.73;;
12155;SDS011;6141;49.092;8.516;2022-09-03T05:36:09;2.20;;;1.50;;
12155;SDS011;6141;49.092;8.516;2022-09-03T05:38:42;3.80;;;1.80;;
12155;SDS011;6141;49.092;8.516;2022-09-03T05:41:12;4.70;;;1.93;;
12155;SDS011;6141;49.092;8.516;2022-09-03T05:43:51;3.23;;;1.70;;
12155;SDS011;6141;49.092;8.516;2022-09-03T05:46:32;2.30;;;1.70;;
12155;SDS011;6141;49.092;8.516;2022-09-03T05:49:22;2.67;;;1.60;;
12155;SDS011;6141;49.092;8.516;2022-09-03T05:52:05;1.53;;;1.43;;
12155;SDS011;6141;49.092;8.516;2022-09-03T05:54:46;5.20;;;1.77;;
12155;SDS011;6141;49.092;8.516;2022-09-03T05:57:23;1.80;;;1.47;;
12155;SDS011;6141;49.092;8.516;2022-09-03T05:59:58;1.77;;;1.40;;
12155;SDS011;6141;49.092;8.516;2022-09-03T06:02:40;2.73;;;1.40;;
12155;SDS011;6141;49.092;8.516;2022-09-03T06:05:19;2.00;;;1.60;;
12155;SDS011;6141;49.092;8.516;2022-09-03T06:07:51;1.90;;;1.50;;
12155;SDS011;6141;49.092;8.516;2022-09-03T06:10:26;3.33;;;1.50;;
12155;SDS011;6141;49.092;8.516;2022-09-03T06:14:16;3.63;;;1.33;;
12155;SDS011;6141;49.092;8.516;2022-09-03T06:21:58;2.07;;;1.50;;
12155;SDS011;6141;49.092;8.516;2022-09-03T06:29:22;2.53;;;1.67;;
12155;SDS011;6141;49.092;8.516;2022-09-03T06:42:26;2.30;;;1.40;;
12155;SDS011;6141;49.092;8.516;2022-09-03T06:51:02;2.60;;;1.60;;
12155;SDS011;6141;49.092;8.516;2022-09-03T07:30:43;5.73;;;1.63;;
12155;SDS011;6141;49.092;8.516;2022-09-03T07:34:14;5.37;;;2.17;;
12155;SDS011;6141;49.092;8.516;2022-09-03T07:37:00;6.40;;;2.23;;
12155;SDS011;6141;49.092;8.516;2022-09-03T07:40:06;8.20;;;2.47;;
12155;SDS011;6141;49.092;8.516;2022-09-03T07:43:18;4.97;;;2.37;;
12155;SDS011;6141;49.092;8.516;2022-09-03T07:47:19;7.23;;;2.30;;
12155;SDS011;6141;49.092;8.516;2022-09-03T08:10:40;5.97;;;2.50;;
12155;SDS011;6141;49.092;8.516;2022-09-03T08:26:41;6.40;;;2.33;;
12155;SDS011;6141;49.092;8.516;2022-09-03T08:30:11;6.30;;;2.90;;
12155;SDS011;6141;49.092;8.516;2022-09-03T08:32:45;7.00;;;3.00;;
12155;SDS011;6141;49.092;8.516;2022-09-03T08:35:16;6.83;;;3.00;;
12155;SDS011;6141;49.092;8.516;2022-09-03T08:37:47;5.63;;;2.70;;
12155;SDS011;6141;49.092;8.516;2022-09-03T08:40:22;4.67;;;2.77;;
12155;SDS011;6141;49.092;8.516;2022-09-03T08:42:57;5.30;;;2.53;;
12155;SDS011;6141;49.092;8.516;2022-09-03T08:45:44;7.53;;;3.00;;
12155;SDS011;6141;49.092;8.516;2022-09-03T08:48:14;9.00;;;2.90;;
12155;SDS011;6141;49.092;8.516;2022-09-03T08:50:51;7.90;;;3.60;;
12155;SDS011;6141;49.092;8.516;2022-09-03T08:53:28;5.67;;;3.20;;
12155;SDS011;6141;49.092;8.516;2022-09-03T08:56:07;6.17;;;3.00;;
12155;SDS011;6141;49.092;8.516;2022-09-03T08:58:37;4.57;;;3.00;;
12155;SDS011;6141;49.092;8.516;2022-09-03T09:01:11;4.87;;;2.60;;
12155;SDS011;6141;49.092;8.516;2022-09-03T09:03:47;5.93;;;3.60;;
12155;SDS011;6141;49.092;8.516;2022-09-03T09:06:22;7.43;;;3.60;;
12155;SDS011;6141;49.092;8.516;2022-09-03T09:09:02;5.97;;;2.87;;
12155;SDS011;6141;49.092;8.516;2022-09-03T09:11:42;4.47;;;3.07;;
12155;SDS011;6141;49.092;8.516;2022-09-03T09:14:18;5.67;;;3.30;;
12155;SDS011;6141;49.092;8.516;2022-09-03T09:16:56;6.20;;;3.07;;
12155;SDS011;6141;49.092;8.516;2022-09-03T09:19:38;4.33;;;3.00;;
12155;SDS011;6141;49.092;8.516;2022-09-03T09:22:17;3.87;;;3.17;;
12155;SDS011;6141;49.092;8.516;2022-09-03T09:24:54;5.43;;;3.70;;
12155;SDS011;6141;49.092;8.516;2022-09-03T09:27:31;3.03;;;2.73;;
12155;SDS011;6141;49.092;8.516;2022-09-03T09:30:13;4.13;;;2.93;;
12155;SDS011;6141;49.092;8.516;2022-09-03T09:32:58;4.10;;;2.87;;
12155;SDS011;6141;49.092;8.516;2022-09-03T09:36:02;4.63;;;3.03;;
12155;SDS011;6141;49.092;8.516;2022-09-03T09:39:08;4.43;;;3.13;;
12155;SDS011;6141;49.092;8.516;2022-09-03T09:42:07;4.20;;;3.13;;
12155;SDS011;6141;49.092;8.516;2022-09-03T09:44:42;4.73;;;3.20;;
12155;SDS011;6141;49.092;8.516;2022-09-03T09:47:22;3.70;;;3.00;;
12155;SDS011;6141;49.092;8.516;2022-09-03T09:53:40;4.17;;;3.40;;
12155;SDS011;6141;49.092;8.516;2022-09-03T10:01:47;5.80;;;3.53;;
12155;SDS011;6141;49.092;8.516;2022-09-03T10:05:30;5.87;;;3.67;;
12155;SDS011;6141;49.092;8.516;2022-09-03T10:08:06;5.30;;;3.50;;
12155;SDS011;6141;49.092;8.516;2022-09-03T10:10:54;6.53;;;3.90;;
12155;SDS011;6141;49.092;8.516;2022-09-03T10:13:50;6.23;;;3.77;;
12155;SDS011;6141;49.092;8.516;2022-09-03T10:16:34;4.73;;;3.80;;
12155;SDS011;6141;49.092;8.516;2022-09-03T10:19:17;4.30;;;3.20;;
12155;SDS011;6141;49.092;8.516;2022-09-03T10:21:57;5.60;;;3.57;;
12155;SDS011;6141;49.092;8.516;2022-09-03T10:24:40;5.80;;;3.67;;
12155;SDS011;6141;49.092;8.516;2022-09-03T10:27:23;5.77;;;3.70;;
12155;SDS011;6141;49.092;8.516;2022-09-03T10:30:01;7.63;;;3.67;;
12155;SDS011;6141;49.092;8.516;2022-09-03T10:32:35;6.53;;;3.87;;
12155;SDS011;6141;49.092;8.516;2022-09-03T10:35:18;5.03;;;3.23;;
12155;SDS011;6141;49.092;8.516;2022-09-03T10:38:35;5.47;;;3.30;;
12155;SDS011;6141;49.092;8.516;2022-09-03T10:41:17;4.27;;;3.10;;
12155;SDS011;6141;49.092;8.516;2022-09-03T10:44:36;6.30;;;3.70;;
12155;SDS011;6141;49.092;8.516;2022-09-03T10:47:47;6.17;;;3.77;;
12155;SDS011;6141;49.092;8.516;2022-09-03T10:50:53;6.03;;;3.03;;
12155;SDS011;6141;49.092;8.516;2022-09-03T10:57:05;3.60;;;3.13;;
12155;SDS011;6141;49.092;8.516;2022-09-03T10:59:56;4.67;;;3.17;;
12155;SDS011;6141;49.092;8.516;2022-09-03T11:06:00;3.43;;;3.10;;
12155;SDS011;6141;49.092;8.516;2022-09-03T11:08:36;5.87;;;3.07;;
12155;SDS011;6141;49.092;8.516;2022-09-03T11:11:12;4.23;;;2.70;;
12155;SDS011;6141;49.092;8.516;2022-09-03T11:14:02;4.00;;;2.97;;
12155;SDS011;6141;49.092;8.516;2022-09-03T11:16:36;6.23;;;3.30;;
12155;SDS011;6141;49.092;8.516;2022-09-03T11:19:10;6.30;;;3.07;;
12155;SDS011;6141;49.092;8.516;2022-09-03T11:21:42;3.67;;;3.10;;
12155;SDS011;6141;49.092;8.516;2022-09-03T11:24:18;4.37;;;3.07;;
12155;SDS011;6141;49.092;8.516;2022-09-03T11:27:00;5.97;;;3.10;;
12155;SDS011;6141;49.092;8.516;2022-09-03T11:29:46;4.33;;;2.80;;
12155;SDS011;6141;49.092;8.516;2022-09-03T11:32:44;3.93;;;3.20;;
12155;SDS011;6141;49.092;8.516;2022-09-03T12:49:13;4.57;;;3.10;;
12155;SDS011;6141;49.092;8.516;2022-09-03T13:45:45;5.70;;;2.67;;
12155;SDS011;6141;49.092;8.516;2022-09-03T14:09:02;5.40;;;3.00;;
12155;SDS011;6141;49.092;8.516;2022-09-03T14:11:47;4.13;;;2.97;;
12155;SDS011;6141;49.092;8.516;2022-09-03T14:18:07;3.67;;;2.57;;
12155;SDS011;6141;49.092;8.516;2022-09-03T14:22:04;5.23;;;2.80;;
12155;SDS011;6141;49.092;8.516;2022-09-03T14:54:42;3.53;;;2.80;;
12155;SDS011;6141;49.092;8.516;2022-09-03T14:58:40;4.10;;;3.30;;
12155;SDS011;6141;49.092;8.516;2022-09-03T15:27:52;5.00;;;4.00;;
12155;SDS011;6141;49.092;8.516;2022-09-03T15:32:28;4.00;;;3.60;;
12155;SDS011;6141;49.092;8.516;2022-09-03T15:38:47;4.93;;;3.97;;
12155;SDS011;6141;49.092;8.516;2022-09-03T15:40:49;5.83;;;2.90;;
12155;SDS011;6141;49.092;8.516;2022-09-03T15:48:39;2.77;;;2.57;;
12155;SDS011;6141;49.092;8.516;2022-09-03T15:52:48;2.83;;;1.90;;
12155;SDS011;6141;49.092;8.516;2022-09-03T15:56:52;1.50;;;1.40;;
12155;SDS011;6141;49.092;8.516;2022-09-03T16:00:15;3.10;;;1.50;;
12155;SDS011;6141;49.092;8.516;2022-09-03T16:03:55;3.40;;;1.20;;
12155;SDS011;6141;49.092;8.516;2022-09-03T16:08:19;1.30;;;0.90;;
12155;SDS011;6141;49.092;8.516;2022-09-03T16:17:30;1.90;;;0.73;;
12155;SDS011;6141;49.092;8.516;2022-09-03T16:24:43;2.93;;;0.80;;
12155;SDS011;6141;49.092;8.516;2022-09-03T16:29:02;0.77;;;0.67;;
12155;SDS011;6141;49.092;8.516;2022-09-03T16:42:11;0.93;;;0.83;;
12155;SDS011;6141;49.092;8.516;2022-09-03T16:44:54;1.30;;;0.90;;
12155;SDS011;6141;49.092;8.516;2022-09-03T16:47:34;0.90;;;0.90;;
12155;SDS011;6141;49.092;8.516;2022-09-03T16:50:21;2.70;;;1.00;;
12155;SDS011;6141;49.092;8.516;2022-09-03T16:53:02;1.03;;;0.80;;
12155;SDS011;6141;49.092;8.516;2022-09-03T16:55:49;1.47;;;0.87;;
12155;SDS011;6141;49.092;8.516;2022-09-03T16:58:34;1.13;;;0.93;;
12155;SDS011;6141;49.092;8.516;2022-09-03T17:01:20;1.60;;;0.80;;
12155;SDS011;6141;49.092;8.516;2022-09-03T17:04:18;1.53;;;0.93;;
12155;SDS011;6141;49.092;8.516;2022-09-03T17:10:52;1.03;;;0.93;;
12155;SDS011;6141;49.092;8.516;2022-09-03T17:13:49;0.80;;;0.80;;
12155;SDS011;6141;49.092;8.516;2022-09-03T17:16:33;1.27;;;0.90;;
12155;SDS011;6141;49.092;8.516;2022-09-03T17:19:13;1.93;;;0.93;;
12155;SDS011;6141;49.092;8.516;2022-09-03T17:21:54;1.83;;;0.90;;
12155;SDS011;6141;49.092;8.516;2022-09-03T18:04:45;4.77;;;1.40;;
12155;SDS011;6141;49.092;8.516;2022-09-03T18:17:08;5.37;;;1.43;;
12155;SDS011;6141;49.092;8.516;2022-09-03T18:59:14;3.40;;;1.47;;
12155;SDS011;6141;49.092;8.516;2022-09-03T20:06:40;2.53;;;1.43;;
12155;SDS011;6141;49.092;8.516;2022-09-03T20:10:54;2.43;;;1.70;;
12155;SDS011;6141;49.092;8.516;2022-09-03T20:25:38;3.40;;;1.60;;
12155;SDS011;6141;49.092;8.516;2022-09-03T20:54:26;2.37;;;1.40;;
12155;SDS011;6141;49.092;8.516;2022-09-03T20:57:27;2.43;;;1.60;;
12155;SDS011;6141;49.092;8.516;2022-09-03T21:00:35;3.07;;;1.50;;
12155;SDS011;6141;49.092;8.516;2022-09-03T21:03:54;3.90;;;1.50;;
12155;SDS011;6141;49.092;8.516;2022-09-03T21:07:55;2.90;;;1.50;;
12155;SDS011;6141;49.092;8.516;2022-09-03T21:11:24;4.43;;;1.80;;
12155;SDS011;6141;49.092;8.516;2022-09-03T21:14:31;2.87;;;1.67;;
12155;SDS011;6141;49.092;8.516;2022-09-03T21:18:08;3.63;;;1.50;;
12155;SDS011;6141;49.092;8.516;2022-09-03T21:21:14;1.90;;;1.30;;
12155;SDS011;6141;49.092;8.516;2022-09-03T21:24:58;3.23;;;1.57;;
12155;SDS011;6141;49.092;8.516;2022-09-03T21:28:10;4.40;;;1.57;;
12155;SDS011;6141;49.092;8.516;2022-09-03T21:31:23;3.03;;;1.40;;
12155;SDS011;6141;49.092;8.516;2022-09-03T21:35:00;4.27;;;1.83;;
12155;SDS011;6141;49.092;8.516;2022-09-03T21:38:30;6.23;;;1.70;;
12155;SDS011;6141;49.092;8.516;2022-09-03T21:41:35;4.90;;;1.40;;
12155;SDS011;6141;49.092;8.516;2022-09-03T21:44:57;2.57;;;1.40;;
12155;SDS011;6141;49.092;8.516;2022-09-03T21:51:37;2.57;;;1.40;;
12155;SDS011;6141;49.092;8.516;2022-09-03T21:55:17;6.97;;;1.50;;
12155;SDS011;6141;49.092;8.516;2022-09-03T21:58:22;5.80;;;1.30;;
12155;SDS011;6141;49.092;8.516;2022-09-03T22:01:35;1.57;;;1.10;;
12155;SDS011;6141;49.092;8.516;2022-09-03T22:05:00;1.40;;;1.30;;
12155;SDS011;6141;49.092;8.516;2022-09-03T22:08:06;2.40;;;1.60;;
12155;SDS011;6141;49.092;8.516;2022-09-03T22:11:52;5.47;;;1.50;;
12155;SDS011;6141;49.092;8.516;2022-09-03T22:15:35;2.93;;;1.60;;
12155;SDS011;6141;49.092;8.516;2022-09-03T22:29:41;4.87;;;1.80;;
12155;SDS011;6141;49.092;8.516;2022-09-03T22:33:05;6.37;;;1.70;;
12155;SDS011;6141;49.092;8.516;2022-09-03T22:52:50;3.80;;;1.90;;
12155;SDS011;6141;49.092;8.516;2022-09-03T22:55:39;4.47;;;1.50;;
12155;SDS011;6141;49.092;8.516;2022-09-03T22:59:05;4.77;;;1.60;;
12155;SDS011;6141;49.092;8.516;2022-09-03T23:02:19;5.37;;;1.70;;
12155;SDS011;6141;49.092;8.516;2022-09-03T23:05:33;8.03;;;2.00;;
12155;SDS011;6141;49.092;8.516;2022-09-03T23:20:02;3.50;;;1.60;;
12155;SDS011;6141;49.092;8.516;2022-09-03T23:23:11;3.70;;;1.80;;
12155;SDS011;6141;49.092;8.516;2022-09-03T23:26:25;2.40;;;1.57;;
12155;SDS011;6141;49.092;8.516;2022-09-03T23:29:29;4.77;;;1.80;;
12155;SDS011;6141;49.092;8.516;2022-09-03T23:32:20;4.23;;;1.93;;
12155;SDS011;6141;49.092;8.516;2022-09-03T23:36:01;4.93;;;1.53;;
12155;SDS011;6141;49.092;8.516;2022-09-03T23:38:39;2.93;;;1.90;;
12155;SDS011;6141;49.092;8.516;2022-09-03T23:42:01;3.60;;;1.73;;
12155;SDS011;6141;49.092;8.516;2022-09-03T23:45:10;7.73;;;2.00;;
12155;SDS011;6141;49.092;8.516;2022-09-03T23:49:45;2.00;;;1.70;;
12155;SDS011;6141;49.092;8.516;2022-09-03T23:52:51;4.93;;;1.70;;
12155;SDS011;6141;49.092;8.516;2022-09-03T23:59:34;4.57;;;1.73;;
